Time;durP1;ratioP1;P1;durP2;ratioP2;P2;SDS_P1;SDS_P2;PMS_P1;PMS_P2;Temp;Humidity;BMP_temperature;BMP_pressure;BME280_temperature;BME280_humidity;BME280_pressure;Samples;Min_cycle;Max_cycle;Signal;HPM_P1;HPM_P2
2021/10/22 00:00:14;;;;;;;;;;;19.10;61.00;;;;;;5007256;28;19917;-57
2021/10/22 00:02:39;;;;;;;;;;;19.10;61.00;;;;;;5011546;28;19959;-55
2021/10/22 00:05:05;;;;;;;;;;;19.10;61.10;;;;;;5011545;28;20297;-58
2021/10/22 00:07:30;;;;;;;;;;;19.10;61.00;;;;;;5014850;28;19921;-58
2021/10/22 00:09:57;;;;;;;;;;;19.10;61.00;;;;;;5007043;28;20575;-57
2021/10/22 00:12:22;;;;;;;;;;;19.10;61.00;;;;;;5005469;28;19920;-56
2021/10/22 00:14:48;;;;;;;;;;;19.10;61.00;;;;;;5009324;28;20346;-55
2021/10/22 00:17:13;;;;;;;;;;;19.10;61.00;;;;;;5017843;28;20890;-58
2021/10/22 00:19:39;;;;;;;;;;;19.10;60.90;;;;;;5002059;28;19975;-55
2021/10/22 00:22:04;;;;;;;;;;;19.10;60.90;;;;;;5014062;28;19917;-55
2021/10/22 00:24:30;;;;;;;;;;;19.10;60.90;;;;;;5016891;28;19967;-58
2021/10/22 00:26:55;;;;;;;;;;;19.10;60.90;;;;;;5007391;28;20031;-61
2021/10/22 00:29:21;;;;;;;;;;;19.10;60.90;;;;;;5007433;28;19918;-52
2021/10/22 00:31:46;;;;;;;;;;;19.10;60.90;;;;;;5013337;28;19913;-55
2021/10/22 00:34:12;;;;;;;;;;;19.10;60.90;;;;;;5013298;28;19917;-60
2021/10/22 00:36:37;;;;;;;;;;;19.10;60.90;;;;;;5016821;28;20326;-61
2021/10/22 00:39:03;;;;;;;;;;;19.10;60.90;;;;;;5001546;28;19913;-58
2021/10/22 00:41:28;;;;;;;;;;;19.10;60.90;;;;;;5009716;28;20008;-58
2021/10/22 00:43:54;;;;;;;;;;;19.10;60.90;;;;;;5016716;28;19913;-54
2021/10/22 00:46:19;;;;;;;;;;;19.10;60.80;;;;;;5007201;28;19968;-55
2021/10/22 00:48:45;;;;;;;;;;;19.00;60.80;;;;;;5009668;28;19913;-56
2021/10/22 00:51:13;;;;;;;;;;;19.10;60.80;;;;;;5012414;28;19925;-57
2021/10/22 00:53:39;;;;;;;;;;;19.10;60.90;;;;;;5011903;28;20147;-59
2021/10/22 00:56:05;;;;;;;;;;;19.10;60.80;;;;;;5024518;28;20495;-54
2021/10/22 00:58:31;;;;;;;;;;;19.10;60.80;;;;;;5014484;28;20135;-53
2021/10/22 01:00:56;;;;;;;;;;;19.00;60.80;;;;;;5026360;28;19914;-58
2021/10/22 01:03:22;;;;;;;;;;;19.00;60.70;;;;;;5013623;28;20155;-58
2021/10/22 01:05:47;;;;;;;;;;;19.10;60.80;;;;;;5004964;28;19913;-52
2021/10/22 01:08:13;;;;;;;;;;;19.10;60.70;;;;;;5013887;28;19929;-55
2021/10/22 01:10:38;;;;;;;;;;;19.00;60.70;;;;;;5006124;28;19925;-60
2021/10/22 01:13:03;;;;;;;;;;;19.00;60.70;;;;;;5029513;28;20536;-53
2021/10/22 01:15:31;;;;;;;;;;;19.00;60.70;;;;;;5011145;28;19921;-57
2021/10/22 01:17:59;;;;;;;;;;;19.00;60.70;;;;;;5017457;28;20453;-55
2021/10/22 01:20:25;;;;;;;;;;;19.00;60.70;;;;;;5021497;28;19917;-56
2021/10/22 01:22:51;;;;;;;;;;;19.00;60.70;;;;;;5017489;28;19921;-57
2021/10/22 01:25:17;;;;;;;;;;;19.00;60.60;;;;;;5011837;28;19967;-56
2021/10/22 01:27:43;;;;;;;;;;;19.00;60.60;;;;;;5014992;28;19956;-57
2021/10/22 01:30:09;;;;;;;;;;;19.00;60.60;;;;;;5013838;28;19990;-57
2021/10/22 01:32:35;;;;;;;;;;;19.00;60.60;;;;;;5008847;28;19917;-59
2021/10/22 01:35:00;;;;;;;;;;;19.00;60.50;;;;;;5001769;28;19959;-56
2021/10/22 01:37:26;;;;;;;;;;;19.00;60.50;;;;;;5015824;28;20012;-54
2021/10/22 01:39:51;;;;;;;;;;;19.00;60.50;;;;;;5022097;28;19924;-54
2021/10/22 01:42:17;;;;;;;;;;;19.00;60.50;;;;;;5005899;28;19960;-55
2021/10/22 01:44:42;;;;;;;;;;;19.00;60.50;;;;;;5011541;28;19991;-54
2021/10/22 01:47:08;;;;;;;;;;;19.00;60.50;;;;;;5013750;28;19913;-56
2021/10/22 01:49:34;;;;;;;;;;;19.00;60.50;;;;;;5013860;28;20289;-56
2021/10/22 01:51:59;;;;;;;;;;;19.00;60.50;;;;;;5018414;28;19917;-57
2021/10/22 01:54:25;;;;;;;;;;;19.00;60.50;;;;;;5011771;28;19917;-55
2021/10/22 01:56:50;;;;;;;;;;;19.00;60.50;;;;;;5007354;28;19913;-54
2021/10/22 01:59:16;;;;;;;;;;;18.90;60.50;;;;;;5017864;28;20618;-58
2021/10/22 02:01:41;;;;;;;;;;;19.00;60.50;;;;;;5019302;28;19917;-58
2021/10/22 02:04:07;;;;;;;;;;;19.00;60.50;;;;;;5009866;28;19920;-57
2021/10/22 02:06:32;;;;;;;;;;;18.90;60.40;;;;;;4997439;28;19932;-57
2021/10/22 02:08:58;;;;;;;;;;;19.00;60.50;;;;;;5006113;28;20354;-55
2021/10/22 02:11:23;;;;;;;;;;;18.90;60.40;;;;;;5014668;28;19918;-55
2021/10/22 02:13:49;;;;;;;;;;;18.90;60.40;;;;;;5023429;28;19917;-57
2021/10/22 02:16:15;;;;;;;;;;;18.90;60.40;;;;;;5005583;28;19945;-57
2021/10/22 02:18:41;;;;;;;;;;;18.90;60.40;;;;;;4999666;28;19914;-58
2021/10/22 02:21:06;;;;;;;;;;;18.90;60.40;;;;;;5017882;28;19919;-56
2021/10/22 02:23:31;;;;;;;;;;;18.90;60.40;;;;;;5026187;28;19983;-55
2021/10/22 02:25:57;;;;;;;;;;;18.90;60.40;;;;;;5011241;28;19920;-54
2021/10/22 02:28:22;;;;;;;;;;;18.90;60.40;;;;;;5022827;28;19921;-58
2021/10/22 02:30:48;;;;;;;;;;;18.90;60.40;;;;;;5014969;28;20371;-55
2021/10/22 02:33:14;;;;;;;;;;;18.90;60.40;;;;;;5017507;28;19940;-57
2021/10/22 02:35:39;;;;;;;;;;;18.90;60.40;;;;;;5018941;28;19921;-58
2021/10/22 02:38:04;;;;;;;;;;;18.90;60.40;;;;;;5018102;28;19921;-58
2021/10/22 02:40:30;;;;;;;;;;;18.90;60.40;;;;;;5022856;28;19913;-58
2021/10/22 02:42:55;;;;;;;;;;;18.90;60.40;;;;;;5015808;28;19917;-56
2021/10/22 02:45:21;;;;;;;;;;;18.90;60.40;;;;;;5016720;28;19949;-58
2021/10/22 02:47:46;;;;;;;;;;;18.90;60.40;;;;;;5018356;28;20586;-57
2021/10/22 02:50:12;;;;;;;;;;;18.90;60.40;;;;;;5012894;28;19953;-56
2021/10/22 02:52:37;;;;;;;;;;;18.90;60.40;;;;;;5013486;28;19920;-57
2021/10/22 02:55:04;;;;;;;;;;;18.90;60.40;;;;;;5012049;28;19921;-57
2021/10/22 02:57:29;;;;;;;;;;;18.90;60.40;;;;;;5009140;28;19921;-57
2021/10/22 02:59:55;;;;;;;;;;;18.90;60.30;;;;;;5010560;28;19913;-59
2021/10/22 03:02:21;;;;;;;;;;;18.90;60.30;;;;;;5019892;28;19919;-57
2021/10/22 03:04:46;;;;;;;;;;;18.80;60.30;;;;;;5015706;28;19913;-57
2021/10/22 03:07:12;;;;;;;;;;;18.80;60.30;;;;;;5004836;28;19979;-57
2021/10/22 03:09:37;;;;;;;;;;;18.90;60.30;;;;;;5018518;28;20583;-58
2021/10/22 03:12:03;;;;;;;;;;;18.80;60.30;;;;;;5020318;28;19913;-58
2021/10/22 03:14:28;;;;;;;;;;;18.80;60.20;;;;;;5012869;28;19920;-58
2021/10/22 03:16:54;;;;;;;;;;;18.80;60.20;;;;;;5013859;28;19963;-58
2021/10/22 03:19:19;;;;;;;;;;;18.80;60.20;;;;;;5010000;28;19945;-58
2021/10/22 03:21:45;;;;;;;;;;;18.80;60.20;;;;;;5011028;28;19921;-57
2021/10/22 03:24:10;;;;;;;;;;;18.80;60.20;;;;;;5006692;28;19948;-58
2021/10/22 03:26:36;;;;;;;;;;;18.80;60.20;;;;;;5013561;28;19990;-54
2021/10/22 03:29:01;;;;;;;;;;;18.80;60.20;;;;;;5014015;28;19917;-57
2021/10/22 03:31:28;;;;;;;;;;;18.80;60.20;;;;;;5012011;28;20319;-58
2021/10/22 03:33:53;;;;;;;;;;;18.80;60.10;;;;;;5015351;28;20490;-57
2021/10/22 03:36:19;;;;;;;;;;;18.80;60.00;;;;;;5013568;28;20034;-58
2021/10/22 03:38:44;;;;;;;;;;;18.80;60.10;;;;;;5008723;28;20453;-57
2021/10/22 03:41:09;;;;;;;;;;;18.80;60.00;;;;;;5017271;28;19918;-57
2021/10/22 03:43:35;;;;;;;;;;;18.80;60.10;;;;;;5008296;28;19917;-57
2021/10/22 03:46:01;;;;;;;;;;;18.80;60.00;;;;;;5016750;28;19963;-56
2021/10/22 03:48:27;;;;;;;;;;;18.70;60.10;;;;;;5003799;28;19968;-57
2021/10/22 03:50:53;;;;;;;;;;;18.80;60.10;;;;;;5004039;28;19929;-57
2021/10/22 03:53:18;;;;;;;;;;;18.80;60.10;;;;;;5015045;28;19951;-55
2021/10/22 03:55:44;;;;;;;;;;;18.70;60.00;;;;;;5019757;28;19913;-56
2021/10/22 03:58:09;;;;;;;;;;;18.70;60.00;;;;;;5015206;28;20374;-57
2021/10/22 04:00:34;;;;;;;;;;;18.70;60.00;;;;;;5012964;28;19921;-57
2021/10/22 04:03:00;;;;;;;;;;;18.80;60.00;;;;;;5008130;28;20374;-57
2021/10/22 04:05:25;;;;;;;;;;;18.70;60.00;;;;;;5003690;28;19914;-58
2021/10/22 04:07:51;;;;;;;;;;;18.80;60.70;;;;;;5013009;28;19921;-57
2021/10/22 04:10:16;;;;;;;;;;;18.70;60.00;;;;;;5014957;28;19921;-60
2021/10/22 04:12:42;;;;;;;;;;;18.70;60.10;;;;;;5015401;28;20470;-57
2021/10/22 04:15:07;;;;;;;;;;;18.70;60.00;;;;;;5012257;28;19922;-59
2021/10/22 04:17:33;;;;;;;;;;;18.70;60.00;;;;;;5015353;28;19924;-58
2021/10/22 04:19:58;;;;;;;;;;;18.70;60.10;;;;;;5007873;28;19919;-57
2021/10/22 04:22:24;;;;;;;;;;;18.70;60.00;;;;;;5006075;28;19917;-56
2021/10/22 04:24:49;;;;;;;;;;;18.70;60.00;;;;;;5006545;28;19920;-55
2021/10/22 04:27:15;;;;;;;;;;;18.70;60.00;;;;;;5017606;28;19945;-57
2021/10/22 04:29:40;;;;;;;;;;;18.70;60.00;;;;;;5010686;28;19914;-58
2021/10/22 04:32:06;;;;;;;;;;;18.70;59.90;;;;;;5015785;28;21404;-58
2021/10/22 04:34:32;;;;;;;;;;;18.70;59.90;;;;;;5007820;28;20371;-58
2021/10/22 04:37:21;;;;;;;;;;;18.70;59.80;;;;;;5011177;28;19917;-58
2021/10/22 04:42:27;;;;;;;;;;;18.70;60.00;;;;;;5003113;28;19920;-56
2021/10/22 04:44:52;;;;;;;;;;;18.70;60.10;;;;;;5010952;28;19921;-57
2021/10/22 04:47:17;;;;;;;;;;;18.70;60.20;;;;;;5020153;28;19975;-56
2021/10/22 04:49:43;;;;;;;;;;;18.70;60.30;;;;;;5015832;28;19924;-57
2021/10/22 04:52:08;;;;;;;;;;;18.70;60.30;;;;;;5005535;28;20470;-57
2021/10/22 04:54:34;;;;;;;;;;;18.60;60.20;;;;;;5013064;28;19913;-58
2021/10/22 04:56:59;;;;;;;;;;;18.70;60.20;;;;;;5021743;28;19917;-56
2021/10/22 04:59:25;;;;;;;;;;;18.70;60.20;;;;;;5016609;28;19921;-57
2021/10/22 05:01:50;;;;;;;;;;;18.60;60.10;;;;;;5002034;28;20329;-56
2021/10/22 05:04:16;;;;;;;;;;;18.60;60.00;;;;;;5005008;28;19913;-59
2021/10/22 05:06:41;;;;;;;;;;;18.70;60.00;;;;;;5008210;28;19935;-58
2021/10/22 05:09:06;;;;;;;;;;;18.60;60.00;;;;;;5005699;28;19913;-57
2021/10/22 05:11:32;;;;;;;;;;;18.60;60.00;;;;;;5013265;28;20342;-60
2021/10/22 05:13:57;;;;;;;;;;;18.60;60.20;;;;;;5011842;28;19913;-57
2021/10/22 05:16:24;;;;;;;;;;;18.60;61.30;;;;;;5005204;28;19924;-57
2021/10/22 05:18:49;;;;;;;;;;;18.60;61.00;;;;;;5016988;28;19921;-55
2021/10/22 05:21:15;;;;;;;;;;;18.60;60.80;;;;;;5019070;28;20372;-53
2021/10/22 05:23:40;;;;;;;;;;;18.60;62.50;;;;;;5013364;28;19920;-58
2021/10/22 05:26:06;;;;;;;;;;;18.60;63.10;;;;;;5011955;28;19913;-59
2021/10/22 05:28:31;;;;;;;;;;;18.60;63.60;;;;;;5006939;28;19960;-60
2021/10/22 05:30:56;;;;;;;;;;;18.60;63.70;;;;;;5010833;28;20662;-65
2021/10/22 05:33:22;;;;;;;;;;;18.60;63.20;;;;;;5017444;28;19921;-57
2021/10/22 05:35:48;;;;;;;;;;;18.50;54.70;;;;;;5007057;28;19914;-56
2021/10/22 05:38:14;;;;;;;;;;;18.30;50.30;;;;;;5006268;28;19921;-59
2021/10/22 05:40:39;;;;;;;;;;;18.10;49.60;;;;;;5017256;28;19913;-57
2021/10/22 05:43:05;;;;;;;;;;;18.10;48.90;;;;;;5017433;28;19913;-57
2021/10/22 05:45:30;;;;;;;;;;;17.90;48.00;;;;;;5018249;28;19913;-57
2021/10/22 05:47:56;;;;;;;;;;;17.90;47.60;;;;;;5004348;28;19917;-57
2021/10/22 05:50:21;;;;;;;;;;;17.60;46.30;;;;;;5021723;28;19917;-56
2021/10/22 05:52:47;;;;;;;;;;;17.50;48.70;;;;;;5013326;28;19964;-56
2021/10/22 05:55:12;;;;;;;;;;;17.70;52.10;;;;;;5015055;28;19921;-56
2021/10/22 05:57:38;;;;;;;;;;;17.90;52.30;;;;;;5017144;28;20360;-56
2021/10/22 06:00:03;;;;;;;;;;;18.00;51.20;;;;;;5025603;28;19920;-56
2021/10/22 06:02:29;;;;;;;;;;;18.10;51.00;;;;;;5019504;28;19921;-58
2021/10/22 06:04:54;;;;;;;;;;;18.20;51.30;;;;;;5013441;28;19914;-58
2021/10/22 06:07:20;;;;;;;;;;;18.20;51.50;;;;;;5021193;28;19928;-56
2021/10/22 06:09:46;;;;;;;;;;;18.20;51.70;;;;;;5011399;28;19913;-57
2021/10/22 06:12:13;;;;;;;;;;;18.20;52.20;;;;;;5010525;28;20252;-56
2021/10/22 06:14:39;;;;;;;;;;;18.20;52.30;;;;;;5032366;28;19921;-57
2021/10/22 06:17:04;;;;;;;;;;;18.30;52.60;;;;;;5015015;28;20280;-56
2021/10/22 06:19:34;;;;;;;;;;;18.40;52.90;;;;;;5020896;28;19913;-57
2021/10/22 06:22:10;;;;;;;;;;;18.50;52.90;;;;;;5014370;28;20008;-57
2021/10/22 06:24:36;;;;;;;;;;;18.60;53.00;;;;;;5033313;28;20169;-57
2021/10/22 06:27:02;;;;;;;;;;;18.60;53.20;;;;;;5016827;28;19952;-57
2021/10/22 06:29:29;;;;;;;;;;;18.70;53.30;;;;;;5008333;28;19953;-57
2021/10/22 06:31:54;;;;;;;;;;;18.70;53.60;;;;;;5018500;28;19924;-55
2021/10/22 06:34:23;;;;;;;;;;;18.70;53.70;;;;;;5017018;28;19918;-56
2021/10/22 06:36:48;;;;;;;;;;;18.80;54.10;;;;;;5021064;28;20489;-56
2021/10/22 06:39:14;;;;;;;;;;;18.80;54.30;;;;;;5009325;28;19963;-55
2021/10/22 06:41:39;;;;;;;;;;;18.90;54.40;;;;;;5020885;28;20418;-57
2021/10/22 06:44:05;;;;;;;;;;;18.90;54.60;;;;;;5012540;28;19918;-58
2021/10/22 06:46:30;;;;;;;;;;;18.90;54.70;;;;;;5012853;28;19913;-56
2021/10/22 06:48:56;;;;;;;;;;;18.90;54.80;;;;;;5020011;28;20268;-57
2021/10/22 06:51:21;;;;;;;;;;;18.90;54.90;;;;;;5011045;28;19944;-57
2021/10/22 06:53:48;;;;;;;;;;;18.90;55.00;;;;;;5012303;28;19913;-56
2021/10/22 06:56:14;;;;;;;;;;;18.90;55.00;;;;;;5016555;28;19924;-57
2021/10/22 06:58:39;;;;;;;;;;;18.90;55.10;;;;;;5014267;28;19921;-56
2021/10/22 07:01:04;;;;;;;;;;;18.90;55.00;;;;;;5009958;28;19913;-55
2021/10/22 07:03:38;;;;;;;;;;;19.00;55.10;;;;;;5015690;28;19913;-58
2021/10/22 07:08:49;;;;;;;;;;;18.90;55.00;;;;;;5014471;28;19928;-58
2021/10/22 07:11:15;;;;;;;;;;;18.90;55.20;;;;;;5011052;28;19917;-57
2021/10/22 07:13:40;;;;;;;;;;;18.90;55.20;;;;;;5015905;28;20666;-57
2021/10/22 07:16:06;;;;;;;;;;;18.90;55.30;;;;;;5021569;28;19913;-54
2021/10/22 07:18:31;;;;;;;;;;;18.90;55.30;;;;;;5010245;28;19960;-58
2021/10/22 07:20:58;;;;;;;;;;;18.90;55.20;;;;;;5008231;28;19913;-57
2021/10/22 07:23:25;;;;;;;;;;;18.90;55.30;;;;;;5003579;28;19913;-57
2021/10/22 07:25:50;;;;;;;;;;;18.90;55.30;;;;;;5012657;28;19967;-58
2021/10/22 07:28:16;;;;;;;;;;;18.90;55.30;;;;;;5021404;28;19917;-57
2021/10/22 07:30:44;;;;;;;;;;;18.90;55.40;;;;;;5011394;28;20012;-57
2021/10/22 07:33:09;;;;;;;;;;;18.90;55.40;;;;;;5011387;28;20357;-58
2021/10/22 07:35:40;;;;;;;;;;;18.90;55.40;;;;;;5032322;28;19924;-58
2021/10/22 07:38:09;;;;;;;;;;;18.90;55.40;;;;;;5011650;28;19995;-56
2021/10/22 07:40:35;;;;;;;;;;;18.90;55.50;;;;;;5018254;28;19920;-57
2021/10/22 07:43:01;;;;;;;;;;;18.80;55.40;;;;;;5013938;28;19913;-57
2021/10/22 07:45:26;;;;;;;;;;;18.80;55.40;;;;;;5014205;28;19913;-57
2021/10/22 07:47:52;;;;;;;;;;;18.90;55.50;;;;;;5014328;28;20898;-56
2021/10/22 07:50:19;;;;;;;;;;;18.80;55.40;;;;;;5003349;28;19924;-58
2021/10/22 07:52:44;;;;;;;;;;;18.80;55.60;;;;;;5020059;28;19920;-56
2021/10/22 07:55:10;;;;;;;;;;;18.80;55.50;;;;;;5020239;28;20538;-57
2021/10/22 07:57:35;;;;;;;;;;;18.80;55.50;;;;;;5008249;28;19919;-57
2021/10/22 08:00:00;;;;;;;;;;;18.80;55.60;;;;;;5014610;28;19920;-58
2021/10/22 08:02:26;;;;;;;;;;;18.80;55.60;;;;;;5019020;28;19959;-56
2021/10/22 08:04:52;;;;;;;;;;;18.80;55.70;;;;;;5018790;28;20383;-58
2021/10/22 08:07:18;;;;;;;;;;;18.80;55.70;;;;;;5009898;28;19921;-56
2021/10/22 08:09:44;;;;;;;;;;;18.80;55.80;;;;;;5014070;28;20279;-57
2021/10/22 08:12:10;;;;;;;;;;;18.80;55.80;;;;;;5022997;28;19980;-56
2021/10/22 08:14:36;;;;;;;;;;;18.80;55.80;;;;;;5011495;28;19921;-56
2021/10/22 08:17:01;;;;;;;;;;;18.70;55.80;;;;;;5016366;28;19913;-56
2021/10/22 08:19:27;;;;;;;;;;;18.80;55.90;;;;;;5022202;28;19917;-56
2021/10/22 08:22:25;;;;;;;;;;;18.70;55.90;;;;;;5016089;28;19953;-57
2021/10/22 08:24:40;;;;;;;;;;;18.70;55.90;;;;;;5007386;28;20462;-54
2021/10/22 08:27:07;;;;;;;;;;;18.70;56.00;;;;;;5001840;28;19924;-59
2021/10/22 08:29:33;;;;;;;;;;;18.70;56.70;;;;;;5011040;28;19913;-57
2021/10/22 08:31:59;;;;;;;;;;;18.70;56.10;;;;;;5013323;28;19918;-54
2021/10/22 08:34:24;;;;;;;;;;;18.70;56.10;;;;;;5012720;28;19947;-58
2021/10/22 08:36:49;;;;;;;;;;;18.70;56.30;;;;;;5005602;28;19913;-56
2021/10/22 08:39:16;;;;;;;;;;;18.60;56.20;;;;;;5013279;28;21040;-56
2021/10/22 08:41:41;;;;;;;;;;;18.60;56.30;;;;;;5009759;28;19996;-57
2021/10/22 08:44:07;;;;;;;;;;;18.60;56.40;;;;;;5002305;28;20593;-54
2021/10/22 08:46:32;;;;;;;;;;;18.60;56.40;;;;;;4999538;28;19918;-55
2021/10/22 08:48:58;;;;;;;;;;;18.60;56.40;;;;;;5006152;28;19925;-54
2021/10/22 08:51:24;;;;;;;;;;;18.60;56.40;;;;;;5011793;28;20004;-57
2021/10/22 08:53:49;;;;;;;;;;;18.60;56.40;;;;;;5012292;28;20571;-58
2021/10/22 08:56:16;;;;;;;;;;;18.60;56.50;;;;;;5017914;28;19913;-56
2021/10/22 08:58:42;;;;;;;;;;;18.60;56.50;;;;;;5005274;28;19953;-58
2021/10/22 09:01:07;;;;;;;;;;;18.60;56.50;;;;;;5013696;28;19935;-57
2021/10/22 09:03:37;;;;;;;;;;;18.60;56.60;;;;;;5013347;28;20434;-57
2021/10/22 09:06:04;;;;;;;;;;;18.60;56.60;;;;;;5020238;28;19940;-56
2021/10/22 09:08:30;;;;;;;;;;;18.60;56.60;;;;;;5001449;28;20049;-57
2021/10/22 09:10:56;;;;;;;;;;;18.50;56.60;;;;;;5010619;28;19918;-57
2021/10/22 09:13:26;;;;;;;;;;;18.60;56.70;;;;;;5006850;28;19914;-58
2021/10/22 09:15:51;;;;;;;;;;;18.60;56.70;;;;;;5021345;28;20015;-57
2021/10/22 09:18:24;;;;;;;;;;;18.50;56.70;;;;;;5015836;28;19944;-57
2021/10/22 09:20:53;;;;;;;;;;;18.50;56.80;;;;;;5013375;28;19913;-55
2021/10/22 09:23:31;;;;;;;;;;;18.50;56.90;;;;;;5007075;28;19913;-58
2021/10/22 09:26:15;;;;;;;;;;;18.50;56.80;;;;;;5010554;28;20394;-57
2021/10/22 09:28:40;;;;;;;;;;;18.50;56.90;;;;;;5006848;28;25351;-58
2021/10/22 09:31:12;;;;;;;;;;;18.50;57.00;;;;;;5018622;28;19917;-57
2021/10/22 09:33:51;;;;;;;;;;;18.50;57.00;;;;;;5001843;28;19971;-56
2021/10/22 09:36:35;;;;;;;;;;;18.50;57.00;;;;;;5005077;28;20350;-57
2021/10/22 09:39:04;;;;;;;;;;;18.50;57.00;;;;;;5010153;28;19920;-57
2021/10/22 09:41:30;;;;;;;;;;;18.50;57.10;;;;;;5009034;28;19913;-58
2021/10/22 09:43:55;;;;;;;;;;;18.40;57.00;;;;;;5012361;28;19919;-57
2021/10/22 09:46:21;;;;;;;;;;;18.40;57.00;;;;;;5016744;28;19925;-63
2021/10/22 09:48:47;;;;;;;;;;;18.40;57.10;;;;;;5015580;28;19923;-55
2021/10/22 09:51:25;;;;;;;;;;;18.40;57.10;;;;;;5001323;28;19930;-56
2021/10/22 09:53:51;;;;;;;;;;;18.40;57.20;;;;;;5014874;28;19923;-57
2021/10/22 09:56:17;;;;;;;;;;;18.40;57.10;;;;;;4990244;28;19914;-56
2021/10/22 09:58:43;;;;;;;;;;;18.40;57.20;;;;;;4994758;28;19929;-57
2021/10/22 10:01:09;;;;;;;;;;;18.40;57.20;;;;;;4984770;28;19913;-58
2021/10/22 10:03:38;;;;;;;;;;;18.40;57.20;;;;;;4990514;28;19927;-58
2021/10/22 10:08:32;;;;;;;;;;;18.40;57.90;;;;;;5016809;28;19973;-70
2021/10/22 10:10:57;;;;;;;;;;;18.40;57.30;;;;;;4994169;28;19923;-70
2021/10/22 10:13:23;;;;;;;;;;;18.40;57.30;;;;;;5017670;28;19922;-71
2021/10/22 10:15:48;;;;;;;;;;;18.40;57.40;;;;;;5036888;28;20409;-70
2021/10/22 10:18:18;;;;;;;;;;;18.40;57.30;;;;;;5035739;28;19917;-71
2021/10/22 10:20:43;;;;;;;;;;;18.40;57.30;;;;;;5043596;28;19920;-70
2021/10/22 10:23:09;;;;;;;;;;;18.40;57.40;;;;;;5040739;28;19913;-71
2021/10/22 10:25:34;;;;;;;;;;;18.40;57.40;;;;;;5027036;28;20367;-71
2021/10/22 10:28:00;;;;;;;;;;;18.30;57.40;;;;;;5043148;28;19944;-69
2021/10/22 10:30:26;;;;;;;;;;;18.40;57.40;;;;;;5040152;28;19917;-71
2021/10/22 10:32:52;;;;;;;;;;;18.30;57.40;;;;;;5039165;28;19917;-72
2021/10/22 10:35:17;;;;;;;;;;;18.30;57.40;;;;;;5038230;28;19917;-72
2021/10/22 10:37:47;;;;;;;;;;;18.30;57.40;;;;;;5045271;28;19920;-71
2021/10/22 10:40:13;;;;;;;;;;;18.30;57.40;;;;;;5042306;28;19955;-69
2021/10/22 10:42:40;;;;;;;;;;;18.30;57.40;;;;;;5035081;28;19917;-72
2021/10/22 10:45:06;;;;;;;;;;;18.40;57.50;;;;;;5026605;28;19917;-71
2021/10/22 10:47:36;;;;;;;;;;;18.40;57.50;;;;;;5013704;28;19917;-71
2021/10/22 10:50:02;;;;;;;;;;;18.30;57.40;;;;;;5029724;28;19932;-71
2021/10/22 10:52:37;;;;;;;;;;;18.30;57.50;;;;;;5035689;28;19913;-71
2021/10/22 10:55:19;;;;;;;;;;;18.30;57.50;;;;;;5045435;28;19919;-71
2021/10/22 10:57:51;;;;;;;;;;;18.30;57.50;;;;;;5036315;28;19952;-70
2021/10/22 11:00:17;;;;;;;;;;;18.30;57.50;;;;;;5045069;28;19916;-70
2021/10/22 11:03:01;;;;;;;;;;;18.30;57.60;;;;;;5034086;28;19912;-71
2021/10/22 11:05:42;;;;;;;;;;;18.30;57.60;;;;;;5042309;28;20270;-71
2021/10/22 11:08:12;;;;;;;;;;;18.30;57.60;;;;;;5037854;28;19921;-69
2021/10/22 11:10:58;;;;;;;;;;;18.30;57.60;;;;;;5036732;28;20445;-70
2021/10/22 11:13:24;;;;;;;;;;;18.30;57.60;;;;;;5034590;28;20019;-70
2021/10/22 11:15:49;;;;;;;;;;;18.30;57.70;;;;;;5030210;28;19939;-71
2021/10/22 11:18:15;;;;;;;;;;;18.30;57.60;;;;;;5033546;28;19959;-70
2021/10/22 11:20:40;;;;;;;;;;;18.30;57.60;;;;;;5033472;28;19913;-70
2021/10/22 11:23:10;;;;;;;;;;;18.20;57.60;;;;;;5030152;28;19913;-71
2021/10/22 11:25:35;;;;;;;;;;;18.30;57.60;;;;;;5030644;28;19921;-70
2021/10/22 11:28:02;;;;;;;;;;;18.30;57.70;;;;;;5035749;28;20297;-69
2021/10/22 11:30:28;;;;;;;;;;;18.30;57.60;;;;;;5029609;28;19917;-70
2021/10/22 11:32:53;;;;;;;;;;;18.20;57.60;;;;;;5038087;28;19920;-69
2021/10/22 11:35:27;;;;;;;;;;;18.30;57.70;;;;;;5040248;28;19921;-69
2021/10/22 11:37:52;;;;;;;;;;;18.30;57.70;;;;;;5030653;28;20044;-68
2021/10/22 11:40:20;;;;;;;;;;;18.30;57.70;;;;;;5030503;28;19941;-69
2021/10/22 11:42:45;;;;;;;;;;;18.20;57.70;;;;;;5039154;28;19950;-71
2021/10/22 11:45:13;;;;;;;;;;;18.20;57.60;;;;;;5026560;28;19919;-68
2021/10/22 11:47:41;;;;;;;;;;;18.20;57.70;;;;;;5033633;28;19917;-69
2021/10/22 11:50:07;;;;;;;;;;;18.30;57.80;;;;;;5034832;28;19921;-69
2021/10/22 11:52:33;;;;;;;;;;;18.20;57.70;;;;;;5029400;28;20003;-69
2021/10/22 11:54:58;;;;;;;;;;;18.30;57.80;;;;;;5026267;28;20012;-70
2021/10/22 11:57:24;;;;;;;;;;;18.20;57.70;;;;;;5042463;28;19913;-71
2021/10/22 11:59:50;;;;;;;;;;;18.20;57.70;;;;;;5035956;28;19928;-70
2021/10/22 12:02:17;;;;;;;;;;;18.20;57.80;;;;;;5031168;28;19917;-70
2021/10/22 12:04:43;;;;;;;;;;;18.20;57.70;;;;;;5028333;28;19913;-70
2021/10/22 12:07:09;;;;;;;;;;;18.20;57.70;;;;;;5037472;28;20091;-70
2021/10/22 12:09:35;;;;;;;;;;;18.20;57.70;;;;;;5030165;28;19913;-71
2021/10/22 12:12:08;;;;;;;;;;;18.20;57.70;;;;;;5044492;28;19917;-70
2021/10/22 12:14:34;;;;;;;;;;;18.20;57.60;;;;;;5035353;28;19915;-70
2021/10/22 12:17:02;;;;;;;;;;;18.20;57.70;;;;;;5025455;28;19981;-70
2021/10/22 12:19:28;;;;;;;;;;;18.20;57.60;;;;;;5042380;28;19972;-70
2021/10/22 12:21:53;;;;;;;;;;;18.20;57.60;;;;;;5033005;28;19949;-70
2021/10/22 12:24:19;;;;;;;;;;;18.20;57.60;;;;;;5039638;28;19959;-71
2021/10/22 12:26:44;;;;;;;;;;;18.20;57.70;;;;;;5025813;28;19924;-70
2021/10/22 12:29:11;;;;;;;;;;;18.20;57.60;;;;;;5031488;28;20359;-70
2021/10/22 12:31:37;;;;;;;;;;;18.20;57.70;;;;;;5034929;28;19921;-70
2021/10/22 12:34:03;;;;;;;;;;;18.20;57.80;;;;;;5031269;28;19923;-69
2021/10/22 12:36:28;;;;;;;;;;;18.20;57.70;;;;;;5031841;28;20389;-68
2021/10/22 12:38:54;;;;;;;;;;;18.20;57.70;;;;;;5036241;28;19912;-70
2021/10/22 12:41:20;;;;;;;;;;;18.10;57.70;;;;;;5030794;28;20326;-70
2021/10/22 12:43:45;;;;;;;;;;;18.10;57.70;;;;;;5020712;28;19921;-71
2021/10/22 12:46:13;;;;;;;;;;;18.20;57.80;;;;;;5026474;28;20489;-70
2021/10/22 12:48:46;;;;;;;;;;;18.10;57.60;;;;;;5033901;28;19917;-69
2021/10/22 12:51:12;;;;;;;;;;;18.20;57.70;;;;;;5033080;28;19917;-69
2021/10/22 12:53:42;;;;;;;;;;;18.10;57.70;;;;;;5027195;28;20501;-70
2021/10/22 12:56:25;;;;;;;;;;;18.10;57.70;;;;;;5030296;28;20169;-70
2021/10/22 12:59:10;;;;;;;;;;;18.10;57.70;;;;;;5022726;28;19937;-70
2021/10/22 13:01:35;;;;;;;;;;;18.10;57.70;;;;;;5039981;28;20003;-70
2021/10/22 13:04:02;;;;;;;;;;;18.10;57.70;;;;;;5029997;28;20524;-71
2021/10/22 13:06:32;;;;;;;;;;;18.10;57.80;;;;;;5040360;28;19996;-71
2021/10/22 13:09:34;;;;;;;;;;;18.10;57.70;;;;;;5029230;28;19996;-70
2021/10/22 13:22:51;;;;;;;;;;;18.10;57.80;;;;;;5035782;28;19940;-70
2021/10/22 13:25:17;;;;;;;;;;;18.10;57.90;;;;;;5028230;28;19916;-71
2021/10/22 13:27:42;;;;;;;;;;;18.10;57.90;;;;;;5028603;28;19920;-70
2021/10/22 13:30:27;;;;;;;;;;;18.10;58.00;;;;;;5020310;28;19956;-70
2021/10/22 13:32:52;;;;;;;;;;;18.10;58.00;;;;;;5030013;28;19917;-71
2021/10/22 13:35:18;;;;;;;;;;;18.10;58.00;;;;;;5029474;28;19917;-70
2021/10/22 13:37:43;;;;;;;;;;;18.00;58.00;;;;;;5030413;28;19913;-70
2021/10/22 13:40:09;;;;;;;;;;;18.00;58.20;;;;;;5025153;28;19976;-71
2021/10/22 13:42:34;;;;;;;;;;;18.00;58.10;;;;;;5029562;28;19913;-70
2021/10/22 13:45:01;;;;;;;;;;;18.00;58.10;;;;;;5037186;28;20160;-69
2021/10/22 13:47:26;;;;;;;;;;;18.00;58.00;;;;;;5037776;28;19963;-70
2021/10/22 13:49:52;;;;;;;;;;;18.00;58.00;;;;;;5027726;28;19913;-72
2021/10/22 13:52:18;;;;;;;;;;;18.10;57.90;;;;;;5025741;28;19974;-72
2021/10/22 13:54:43;;;;;;;;;;;18.10;57.80;;;;;;5044450;28;19920;-71
2021/10/22 13:57:09;;;;;;;;;;;18.10;57.60;;;;;;5036587;28;19913;-71
2021/10/22 13:59:37;;;;;;;;;;;18.30;57.60;;;;;;5034944;28;20295;-69
2021/10/22 14:02:03;;;;;;;;;;;18.20;57.30;;;;;;5037807;28;19975;-70
2021/10/22 14:04:28;;;;;;;;;;;18.30;57.20;;;;;;5037089;28;19921;-70
2021/10/22 14:06:53;;;;;;;;;;;18.30;57.10;;;;;;5041748;28;19943;-68
2021/10/22 14:09:19;;;;;;;;;;;18.40;57.20;;;;;;5035375;28;19913;-69
2021/10/22 14:11:52;;;;;;;;;;;18.40;57.10;;;;;;5045402;28;19917;-71
2021/10/22 14:14:39;;;;;;;;;;;18.40;57.00;;;;;;5039609;28;20007;-68
2021/10/22 14:29:57;;;;;;;;;;;18.50;56.90;;;;;;5045126;28;19919;-71
2021/10/22 14:32:23;;;;;;;;;;;18.50;56.90;;;;;;5032542;28;20236;-70
2021/10/22 14:34:50;;;;;;;;;;;18.50;56.80;;;;;;5028722;28;19921;-70
2021/10/22 14:37:15;;;;;;;;;;;18.50;56.80;;;;;;5035508;28;19919;-70
2021/10/22 14:39:41;;;;;;;;;;;18.50;56.80;;;;;;5028179;28;19913;-70
2021/10/22 14:42:08;;;;;;;;;;;18.50;56.70;;;;;;5038902;28;19921;-71
2021/10/22 14:44:38;;;;;;;;;;;18.50;56.70;;;;;;5041700;28;19912;-69